Time;durP1;ratioP1;P1;durP2;ratioP2;P2;SDS_P1;SDS_P2;PMS_P1;PMS_P2;Temp;Humidity;BMP_temperature;BMP_pressure;BME280_temperature;BME280_humidity;BME280_pressure;Samples;Min_cycle;Max_cycle;Signal;HPM_P1;HPM_P2
2023/05/16 00:01:46;;;;;;;8.25;1.90;;;10.40;99.90;;;;;;5015007;28;20045;-81
2023/05/16 00:04:12;;;;;;;6.93;2.10;;;10.40;99.90;;;;;;5014836;28;20033;-82
2023/05/16 00:06:38;;;;;;;5.50;1.10;;;10.40;99.90;;;;;;5015580;28;20033;-81
2023/05/16 00:09:03;;;;;;;10.23;1.60;;;10.40;99.90;;;;;;5020131;28;20029;-81
2023/05/16 00:11:29;;;;;;;8.25;2.08;;;10.40;99.90;;;;;;5015085;28;20129;-81
2023/05/16 00:13:55;;;;;;;7.88;1.85;;;10.40;99.90;;;;;;5015343;28;20076;-82
2023/05/16 00:16:21;;;;;;;4.43;1.35;;;10.40;99.90;;;;;;5014839;28;20029;-80
2023/05/16 00:18:47;;;;;;;6.80;1.58;;;10.30;99.90;;;;;;5015930;28;20071;-81
2023/05/16 00:21:12;;;;;;;9.55;1.50;;;10.30;99.90;;;;;;5013924;28;20605;-81
2023/05/16 00:23:38;;;;;;;6.65;2.13;;;10.30;99.90;;;;;;5017309;28;20033;-82
2023/05/16 00:26:04;;;;;;;6.88;1.60;;;10.20;99.90;;;;;;5016009;28;20021;-81
2023/05/16 00:28:29;;;;;;;7.70;1.73;;;10.20;99.90;;;;;;5015596;28;20122;-80
2023/05/16 00:30:55;;;;;;;8.68;1.60;;;10.10;99.90;;;;;;5014744;28;20621;-82
2023/05/16 00:33:20;;;;;;;6.15;1.40;;;10.10;99.90;;;;;;5015386;28;20510;-82
2023/05/16 00:35:46;;;;;;;6.18;1.67;;;10.10;99.90;;;;;;5015487;28;20040;-81
2023/05/16 00:38:12;;;;;;;5.40;1.30;;;10.00;99.90;;;;;;5026792;28;20021;-81
2023/05/16 00:40:38;;;;;;;5.82;1.20;;;9.90;99.90;;;;;;5016733;28;20025;-81
2023/05/16 00:43:03;;;;;;;7.82;1.40;;;9.90;99.90;;;;;;5014998;28;20056;-82
2023/05/16 00:45:29;;;;;;;6.97;1.40;;;9.80;99.90;;;;;;5013850;28;20033;-81
2023/05/16 00:47:55;;;;;;;4.90;1.25;;;9.80;99.90;;;;;;5016162;28;20033;-81
2023/05/16 00:50:20;;;;;;;7.68;1.45;;;9.70;99.90;;;;;;5015270;28;20091;-82
2023/05/16 00:52:46;;;;;;;10.82;1.90;;;9.60;99.90;;;;;;5016516;28;20041;-81
2023/05/16 00:55:12;;;;;;;8.00;1.70;;;9.60;99.90;;;;;;5016961;28;20030;-80
2023/05/16 00:57:38;;;;;;;7.63;1.63;;;9.60;99.90;;;;;;5014718;28;20029;-81
2023/05/16 01:00:10;;;;;;;6.55;1.20;;;9.50;99.90;;;;;;5015318;28;20026;-82
2023/05/16 01:02:37;;;;;;;7.50;1.08;;;9.50;99.90;;;;;;5015575;28;20395;-81
2023/05/16 01:05:07;;;;;;;6.90;1.85;;;9.40;99.90;;;;;;5015321;28;20029;-81
2023/05/16 01:07:34;;;;;;;3.80;0.98;;;9.40;99.90;;;;;;5016501;28;20618;-81
2023/05/16 01:10:00;;;;;;;8.07;1.15;;;9.40;99.90;;;;;;5015388;28;20025;-82
2023/05/16 01:12:28;;;;;;;6.63;1.10;;;9.30;99.90;;;;;;5014339;28;20056;-81
2023/05/16 01:15:14;;;;;;;10.10;1.83;;;9.30;99.90;;;;;;5014094;28;20045;-82
2023/05/16 01:17:49;;;;;;;7.28;0.90;;;9.30;99.90;;;;;;5014324;28;20402;-81
2023/05/16 01:20:29;;;;;;;5.30;1.27;;;9.20;99.90;;;;;;5015589;28;20026;-81
2023/05/16 01:23:16;;;;;;;4.63;1.15;;;9.20;99.90;;;;;;5015776;28;20048;-80
2023/05/16 01:25:52;;;;;;;7.47;1.33;;;9.10;99.90;;;;;;5016650;28;20112;-82
2023/05/16 01:28:18;;;;;;;5.15;1.40;;;9.10;99.90;;;;;;5014060;28;20060;-81
2023/05/16 01:30:44;;;;;;;5.57;1.65;;;9.00;99.90;;;;;;5015619;28;20029;-81
2023/05/16 01:33:10;;;;;;;7.90;1.17;;;9.00;99.90;;;;;;5014641;28;20085;-82
2023/05/16 01:35:53;;;;;;;8.20;1.17;;;8.90;99.90;;;;;;5014303;28;20519;-82
2023/05/16 01:38:25;;;;;;;11.45;1.65;;;8.90;99.90;;;;;;5015209;28;20450;-82
2023/05/16 01:40:54;;;;;;;8.75;1.15;;;8.80;99.90;;;;;;5016409;28;20025;-82
2023/05/16 01:43:28;;;;;;;12.93;1.75;;;8.80;99.90;;;;;;5013552;28;20044;-82
2023/05/16 01:45:56;;;;;;;;;;;8.80;99.90;;;;;;5014444;28;20407;-83
2023/05/16 01:48:27;;;;;;;7.93;1.33;;;8.70;99.90;;;;;;5013322;28;19962;-81
2023/05/16 01:50:59;;;;;;;7.57;1.30;;;8.60;99.90;;;;;;5015159;28;20479;-82
2023/05/16 01:53:28;;;;;;;6.55;1.48;;;8.60;99.90;;;;;;5013258;28;20021;-82
2023/05/16 01:55:57;;;;;;;5.65;1.95;;;8.60;99.90;;;;;;5016123;28;20571;-80
2023/05/16 01:58:26;;;;;;;4.70;1.17;;;8.60;99.90;;;;;;5013810;28;20037;-82
2023/05/16 02:00:53;;;;;;;6.65;1.58;;;8.50;99.90;;;;;;5014191;28;20029;-81
2023/05/16 02:03:18;;;;;;;8.07;1.08;;;8.50;99.90;;;;;;5014004;28;20030;-81
2023/05/16 02:05:44;;;;;;;6.65;1.33;;;8.40;99.90;;;;;;5011617;28;20115;-82
2023/05/16 02:08:10;;;;;;;5.07;1.10;;;8.40;99.90;;;;;;5018492;28;20025;-82
2023/05/16 02:10:35;;;;;;;6.80;1.05;;;8.40;99.90;;;;;;5029165;28;20033;-82
2023/05/16 02:13:01;;;;;;;5.20;1.05;;;8.30;99.90;;;;;;5013988;28;20034;-81
2023/05/16 02:15:27;;;;;;;6.75;1.17;;;8.30;99.90;;;;;;5013898;28;20108;-81
2023/05/16 02:17:53;;;;;;;6.63;1.88;;;8.30;99.90;;;;;;5013991;28;20026;-81
2023/05/16 02:20:18;;;;;;;7.07;1.35;;;8.30;99.90;;;;;;5013802;28;20057;-80
2023/05/16 02:22:46;;;;;;;7.70;1.50;;;8.30;99.90;;;;;;5013828;28;20041;-81
2023/05/16 02:25:13;;;;;;;6.00;2.20;;;8.20;99.90;;;;;;5014900;28;20029;-81
2023/05/16 02:27:40;;;;;;;6.20;1.05;;;8.30;99.90;;;;;;5015019;28;20531;-81
2023/05/16 02:30:06;;;;;;;3.53;1.10;;;8.20;99.90;;;;;;5014068;28;20029;-81
2023/05/16 02:32:32;;;;;;;2.83;0.90;;;8.30;99.90;;;;;;5011455;28;20380;-82
2023/05/16 02:34:58;;;;;;;7.20;1.25;;;8.20;99.90;;;;;;5012966;28;20128;-81
2023/05/16 02:37:24;;;;;;;5.93;1.65;;;8.20;99.90;;;;;;5022572;28;20033;-81
2023/05/16 02:39:49;;;;;;;7.05;1.70;;;8.20;99.90;;;;;;5013631;28;20037;-81
2023/05/16 02:42:15;;;;;;;5.63;0.85;;;8.20;99.90;;;;;;5015210;28;20037;-80
2023/05/16 02:44:40;;;;;;;4.70;1.05;;;8.20;99.90;;;;;;5012906;28;20547;-81
2023/05/16 02:47:06;;;;;;;6.13;1.02;;;8.20;99.90;;;;;;5013816;28;20158;-82
2023/05/16 02:49:32;;;;;;;4.65;0.80;;;8.20;99.90;;;;;;5013607;28;20018;-81
2023/05/16 02:51:57;;;;;;;7.00;1.73;;;8.20;99.90;;;;;;5018075;28;20095;-81
2023/05/16 02:54:23;;;;;;;4.03;1.08;;;8.20;99.90;;;;;;5014322;28;20030;-81
2023/05/16 02:56:48;;;;;;;5.43;0.90;;;8.20;99.90;;;;;;5017354;28;20033;-81
2023/05/16 02:59:17;;;;;;;3.70;0.90;;;8.20;99.90;;;;;;5015401;28;20022;-80
2023/05/16 03:01:42;;;;;;;7.78;1.25;;;8.10;99.90;;;;;;5015224;28;20038;-80
2023/05/16 03:04:08;;;;;;;4.68;1.05;;;8.10;99.90;;;;;;5017228;28;20052;-81
2023/05/16 03:06:33;;;;;;;6.15;1.58;;;8.10;99.90;;;;;;5017108;28;20542;-81
2023/05/16 03:08:59;;;;;;;6.53;1.05;;;8.10;99.90;;;;;;5016072;28;20030;-80
2023/05/16 03:11:25;;;;;;;5.40;1.02;;;8.10;99.90;;;;;;5016962;28;20406;-81
2023/05/16 03:13:51;;;;;;;5.47;0.93;;;8.20;99.90;;;;;;5019096;28;20032;-81
2023/05/16 03:16:16;;;;;;;3.88;0.82;;;8.20;99.90;;;;;;5016046;28;20037;-81
2023/05/16 03:18:42;;;;;;;7.45;0.90;;;8.20;99.90;;;;;;5016347;28;20033;-81
2023/05/16 03:21:08;;;;;;;6.22;1.13;;;8.30;99.90;;;;;;5014234;28;20037;-81
2023/05/16 03:23:33;;;;;;;7.03;1.25;;;8.30;99.90;;;;;;5017055;28;20033;-80
2023/05/16 03:25:59;;;;;;;6.05;1.10;;;8.30;99.90;;;;;;5017046;28;20030;-81
2023/05/16 03:28:26;;;;;;;8.00;1.40;;;8.40;99.90;;;;;;5020835;28;20029;-81
2023/05/16 03:30:51;;;;;;;3.67;0.70;;;8.30;99.90;;;;;;5016526;28;20018;-81
2023/05/16 03:33:17;;;;;;;5.60;1.17;;;8.30;99.90;;;;;;5014804;28;20034;-82
2023/05/16 03:35:43;;;;;;;5.78;1.00;;;8.30;99.90;;;;;;5017001;28;20027;-81
2023/05/16 03:38:09;;;;;;;5.25;0.90;;;8.30;99.90;;;;;;5024146;28;20037;-81
2023/05/16 03:40:35;;;;;;;4.97;0.90;;;8.30;99.90;;;;;;5016568;28;20163;-81
2023/05/16 03:43:00;;;;;;;4.78;0.85;;;8.30;99.90;;;;;;5018770;28;20416;-80
2023/05/16 03:45:26;;;;;;;3.78;0.70;;;8.30;99.90;;;;;;5015530;28;20030;-81
2023/05/16 03:47:51;;;;;;;6.63;1.10;;;8.40;99.90;;;;;;5031770;28;20048;-82
2023/05/16 03:50:17;;;;;;;2.97;0.70;;;8.30;99.90;;;;;;5017174;28;20096;-83
2023/05/16 03:52:43;;;;;;;5.93;0.80;;;8.30;99.90;;;;;;5020218;28;20048;-82
2023/05/16 03:55:08;;;;;;;2.50;0.90;;;8.30;99.90;;;;;;5016209;28;20384;-81
2023/05/16 03:57:36;;;;;;;5.20;1.02;;;8.30;99.90;;;;;;5015673;28;20522;-81
2023/05/16 04:00:05;;;;;;;4.38;0.90;;;8.30;99.90;;;;;;5013710;28;20026;-82
2023/05/16 04:02:31;;;;;;;4.78;0.82;;;8.30;99.90;;;;;;5029608;28;20124;-81
2023/05/16 04:04:56;;;;;;;4.30;0.90;;;8.50;99.90;;;;;;5015986;28;20117;-82
2023/05/16 04:07:22;;;;;;;5.13;1.00;;;8.60;99.90;;;;;;5014281;28;20033;-83
2023/05/16 04:09:48;;;;;;;5.10;1.02;;;8.70;99.90;;;;;;5015012;28;20022;-82
2023/05/16 04:12:13;;;;;;;4.65;0.80;;;8.80;99.90;;;;;;5016128;28;20466;-82
2023/05/16 04:14:39;;;;;;;5.20;0.77;;;8.90;99.90;;;;;;5016083;28;20041;-82
2023/05/16 04:17:04;;;;;;;2.97;0.80;;;8.90;99.90;;;;;;5016331;28;20037;-82
2023/05/16 04:19:30;;;;;;;2.95;0.70;;;8.90;99.90;;;;;;5015530;28;20030;-82
2023/05/16 04:21:56;;;;;;;4.72;1.23;;;9.00;99.90;;;;;;5015626;28;20795;-80
2023/05/16 04:24:25;;;;;;;5.35;0.90;;;9.10;99.90;;;;;;5015426;28;20413;-82
2023/05/16 04:26:51;;;;;;;3.75;0.68;;;9.10;99.90;;;;;;5017037;28;20025;-82
2023/05/16 04:29:16;;;;;;;4.63;0.80;;;9.10;99.90;;;;;;5016274;28;20053;-81
2023/05/16 04:31:42;;;;;;;7.68;1.00;;;9.00;99.90;;;;;;5011521;28;20029;-82
2023/05/16 04:34:07;;;;;;;4.75;1.00;;;9.00;99.90;;;;;;5012101;28;20036;-81
2023/05/16 04:36:34;;;;;;;4.40;0.90;;;9.00;99.90;;;;;;5013328;28;20036;-81
2023/05/16 04:39:00;;;;;;;5.70;1.13;;;8.90;99.90;;;;;;5020095;28;20025;-81
2023/05/16 04:41:25;;;;;;;2.08;0.60;;;8.80;99.90;;;;;;5011257;28;20033;-81
2023/05/16 04:43:51;;;;;;;5.85;0.70;;;8.80;99.90;;;;;;5013648;28;20084;-82
2023/05/16 04:46:17;;;;;;;5.72;0.90;;;8.80;99.90;;;;;;5012861;28;20030;-81
2023/05/16 04:48:42;;;;;;;3.80;0.85;;;8.80;99.90;;;;;;5011802;28;20037;-82
2023/05/16 04:51:08;;;;;;;3.17;0.70;;;8.80;99.90;;;;;;5013084;28;21072;-82
2023/05/16 04:53:33;;;;;;;4.15;1.00;;;8.90;99.90;;;;;;5013284;28;20786;-80
2023/05/16 04:55:59;;;;;;;2.92;0.90;;;8.90;99.90;;;;;;5012839;28;20144;-82
2023/05/16 04:58:25;;;;;;;5.75;0.88;;;8.90;99.90;;;;;;5013246;28;20041;-82
2023/05/16 05:00:51;;;;;;;3.35;0.90;;;8.90;99.90;;;;;;5012379;28;20056;-82
2023/05/16 05:03:17;;;;;;;5.07;0.90;;;8.90;99.90;;;;;;5010854;28;20056;-80
2023/05/16 05:05:43;;;;;;;5.75;0.90;;;8.80;99.90;;;;;;5028549;28;20013;-80
2023/05/16 05:08:08;;;;;;;3.53;0.90;;;8.70;99.90;;;;;;5012601;28;20487;-80
2023/05/16 05:10:34;;;;;;;4.53;1.08;;;8.70;99.90;;;;;;5010312;28;20686;-80
2023/05/16 05:13:00;;;;;;;2.80;0.60;;;8.70;99.90;;;;;;5013712;28;20077;-80
2023/05/16 05:15:26;;;;;;;3.50;0.73;;;8.70;99.90;;;;;;5011966;28;20101;-80
2023/05/16 05:17:52;;;;;;;3.70;0.90;;;8.70;99.90;;;;;;5011854;28;20514;-81
2023/05/16 05:20:19;;;;;;;2.70;0.68;;;8.60;99.90;;;;;;5011522;28;20525;-80
2023/05/16 05:22:45;;;;;;;2.45;0.73;;;8.70;99.90;;;;;;5012103;28;20065;-82
2023/05/16 05:25:10;;;;;;;4.43;0.73;;;8.70;99.90;;;;;;5013389;28;20183;-80
2023/05/16 05:27:36;;;;;;;4.63;1.17;;;8.80;99.90;;;;;;5015903;28;20049;-81
2023/05/16 05:30:02;;;;;;;6.38;1.25;;;8.90;99.90;;;;;;5015171;28;20391;-80
2023/05/16 05:32:28;;;;;;;4.78;1.20;;;9.10;99.90;;;;;;5018421;28;20032;-81
2023/05/16 05:34:54;;;;;;;2.45;0.60;;;9.30;99.90;;;;;;5013594;28;20021;-81
2023/05/16 05:37:20;;;;;;;6.32;1.05;;;9.40;99.90;;;;;;5014211;28;20759;-81
2023/05/16 05:39:45;;;;;;;4.38;0.88;;;9.50;99.90;;;;;;5015246;28;20029;-81
2023/05/16 05:42:11;;;;;;;3.88;0.85;;;9.60;99.90;;;;;;5015933;28;20041;-80
2023/05/16 05:44:37;;;;;;;3.30;0.80;;;9.70;99.90;;;;;;5015069;28;20499;-81
2023/05/16 05:47:03;;;;;;;4.97;0.80;;;9.70;99.90;;;;;;5014077;28;21348;-81
2023/05/16 05:49:30;;;;;;;6.00;1.05;;;9.70;99.90;;;;;;5012530;28;20073;-81
2023/05/16 05:51:55;;;;;;;6.50;1.20;;;9.70;99.90;;;;;;5012001;28;20028;-81
2023/05/16 05:54:22;;;;;;;5.57;0.95;;;9.70;99.90;;;;;;5014476;28;20033;-81
2023/05/16 05:56:47;;;;;;;5.88;1.20;;;9.70;99.90;;;;;;5015186;28;20052;-81
2023/05/16 05:59:13;;;;;;;5.65;1.52;;;9.80;99.90;;;;;;5015255;28;20156;-82
2023/05/16 06:01:39;;;;;;;3.85;0.80;;;9.70;99.90;;;;;;5012412;28;20080;-83
2023/05/16 06:04:05;;;;;;;3.83;1.10;;;9.70;99.90;;;;;;5013993;28;20510;-82
2023/05/16 06:06:30;;;;;;;5.50;1.42;;;9.60;99.90;;;;;;5013287;28;20034;-82
2023/05/16 06:08:57;;;;;;;4.95;1.17;;;9.60;99.90;;;;;;5012715;28;20025;-82
2023/05/16 06:11:24;;;;;;;5.03;0.80;;;9.60;99.90;;;;;;5013875;28;20038;-82
2023/05/16 06:13:50;;;;;;;3.90;0.80;;;9.50;99.90;;;;;;5015404;28;20041;-81
2023/05/16 06:16:15;;;;;;;2.97;0.80;;;9.50;99.90;;;;;;5018907;28;20649;-83
2023/05/16 06:18:41;;;;;;;4.45;1.10;;;9.50;99.90;;;;;;5029029;28;20657;-83
2023/05/16 06:21:06;;;;;;;3.70;0.95;;;9.50;99.90;;;;;;5028653;28;20026;-82
2023/05/16 06:23:32;;;;;;;5.38;0.80;;;9.50;99.90;;;;;;5014529;28;20071;-82
2023/05/16 06:25:58;;;;;;;3.47;0.88;;;9.50;99.90;;;;;;5014436;28;20017;-83
2023/05/16 06:28:23;;;;;;;3.35;0.90;;;9.50;99.90;;;;;;5014953;28;20539;-81
2023/05/16 06:30:50;;;;;;;4.72;0.80;;;9.60;99.90;;;;;;5016665;28;20083;-81
2023/05/16 06:33:16;;;;;;;7.97;0.98;;;9.60;99.90;;;;;;5016731;28;20025;-81
2023/05/16 06:35:42;;;;;;;5.53;1.50;;;9.70;99.90;;;;;;5018229;28;20133;-81
2023/05/16 06:38:08;;;;;;;6.20;1.67;;;9.80;99.90;;;;;;5017723;28;20032;-81
2023/05/16 06:40:33;;;;;;;5.35;1.00;;;9.90;99.90;;;;;;5017106;28;20029;-82
2023/05/16 06:42:59;;;;;;;4.63;0.85;;;10.00;99.90;;;;;;5022849;28;20124;-82
2023/05/16 06:45:25;;;;;;;5.85;1.25;;;10.10;99.90;;;;;;5017949;28;20475;-81
2023/05/16 06:47:51;;;;;;;7.70;1.52;;;10.20;99.90;;;;;;5017052;28;20029;-81
2023/05/16 06:50:16;;;;;;;11.07;1.95;;;10.30;99.90;;;;;;5016731;28;20034;-82
2023/05/16 06:52:42;;;;;;;5.90;1.23;;;10.40;99.90;;;;;;5017497;28;20483;-80
2023/05/16 06:55:08;;;;;;;5.53;1.08;;;10.50;99.90;;;;;;5017157;28;20368;-81
2023/05/16 06:57:33;;;;;;;6.03;1.25;;;10.60;99.90;;;;;;5018773;28;20074;-81
2023/05/16 06:59:59;;;;;;;6.50;1.52;;;10.70;99.90;;;;;;5018851;28;20036;-81
2023/05/16 07:02:25;;;;;;;7.40;1.20;;;10.90;99.90;;;;;;5016421;28;20317;-82
2023/05/16 07:04:50;;;;;;;4.57;1.45;;;11.10;99.90;;;;;;5016162;28;20349;-81
2023/05/16 07:07:16;;;;;;;4.43;1.20;;;11.30;99.90;;;;;;5017901;28;20107;-81
2023/05/16 07:09:42;;;;;;;3.72;1.15;;;11.50;99.90;;;;;;5032749;28;20044;-83
2023/05/16 07:12:08;;;;;;;5.50;0.90;;;11.70;99.90;;;;;;5017447;28;20112;-82
2023/05/16 07:14:34;;;;;;;5.72;1.00;;;11.80;99.90;;;;;;5018066;28;20040;-83
2023/05/16 07:17:00;;;;;;;3.60;0.70;;;11.90;99.90;;;;;;5016299;28;20446;-84
2023/05/16 07:19:25;;;;;;;4.57;0.70;;;12.00;99.90;;;;;;5014085;28;20025;-82
2023/05/16 07:21:51;;;;;;;3.63;0.63;;;12.00;99.90;;;;;;5020217;28;20037;-81
2023/05/16 07:24:16;;;;;;;4.18;0.80;;;12.00;99.90;;;;;;5017865;28;20021;-83
2023/05/16 07:26:42;;;;;;;6.30;1.38;;;11.90;99.90;;;;;;5015743;28;20088;-83
2023/05/16 07:29:08;;;;;;;6.07;0.82;;;11.90;99.90;;;;;;5017127;28;20018;-81
2023/05/16 07:31:33;;;;;;;4.07;0.88;;;12.00;99.90;;;;;;5015034;28;20505;-82
2023/05/16 07:33:59;;;;;;;5.40;0.60;;;12.10;99.90;;;;;;5015697;28;20034;-80
2023/05/16 07:36:25;;;;;;;5.38;0.90;;;12.20;99.90;;;;;;5015722;28;20113;-82
2023/05/16 07:38:50;;;;;;;3.38;0.57;;;12.30;99.90;;;;;;5017594;28;20044;-81
2023/05/16 07:41:16;;;;;;;5.25;0.55;;;12.40;99.90;;;;;;5016845;28;20498;-82
2023/05/16 07:43:41;;;;;;;5.00;1.13;;;12.60;99.90;;;;;;5018070;28;20080;-82
2023/05/16 07:46:07;;;;;;;4.75;0.88;;;12.70;99.90;;;;;;5016042;28;20033;-83
2023/05/16 07:48:32;;;;;;;6.85;1.10;;;12.80;99.90;;;;;;5016230;28;20562;-82
2023/05/16 07:50:58;;;;;;;5.57;0.77;;;12.90;99.90;;;;;;5017276;28;20048;-81
2023/05/16 07:53:24;;;;;;;3.85;0.70;;;12.90;99.90;;;;;;5030919;28;20022;-81
2023/05/16 07:55:50;;;;;;;4.72;0.95;;;12.90;99.90;;;;;;5016107;28;20053;-80
2023/05/16 07:58:16;;;;;;;4.88;0.60;;;13.00;99.90;;;;;;5016928;28;20025;-81
2023/05/16 08:00:41;;;;;;;3.13;0.77;;;13.00;99.90;;;;;;5015462;28;20022;-81
2023/05/16 08:03:07;;;;;;;2.00;0.50;;;13.10;99.90;;;;;;5025438;28;20484;-80
2023/05/16 08:05:33;;;;;;;3.28;0.93;;;13.20;99.90;;;;;;5013881;28;20029;-82
2023/05/16 08:07:58;;;;;;;10.75;0.50;;;13.30;99.90;;;;;;5017271;28;20618;-80
2023/05/16 08:10:24;;;;;;;3.90;0.68;;;13.40;99.90;;;;;;5016846;28;20728;-81
2023/05/16 08:12:50;;;;;;;4.05;0.52;;;13.60;99.90;;;;;;5015508;28;20153;-81
2023/05/16 08:15:15;;;;;;;3.30;0.52;;;13.80;99.90;;;;;;5014194;28;20512;-84
2023/05/16 08:17:41;;;;;;;3.92;0.85;;;13.90;99.90;;;;;;5015683;28;20113;-82
2023/05/16 08:20:07;;;;;;;5.68;0.80;;;13.90;99.90;;;;;;5015668;28;20028;-81
2023/05/16 08:22:32;;;;;;;2.78;0.60;;;13.80;99.90;;;;;;5015339;28;20042;-82
2023/05/16 08:24:59;;;;;;;4.18;0.60;;;13.60;99.90;;;;;;5016211;28;20021;-81
2023/05/16 08:27:25;;;;;;;3.25;0.80;;;13.50;99.90;;;;;;5014712;28;20030;-82
2023/05/16 08:29:51;;;;;;;1.80;0.50;;;13.40;99.90;;;;;;5015146;28;20030;-83
2023/05/16 08:32:16;;;;;;;3.63;0.77;;;13.30;99.90;;;;;;5016571;28;20502;-81
2023/05/16 08:34:42;;;;;;;3.28;0.80;;;13.30;99.90;;;;;;5031512;28;20041;-82
2023/05/16 08:37:08;;;;;;;2.10;0.52;;;13.20;99.90;;;;;;5017287;28;20033;-82
2023/05/16 08:39:33;;;;;;;3.30;0.57;;;13.20;99.90;;;;;;5016307;28;20030;-81
2023/05/16 08:41:59;;;;;;;1.77;0.40;;;13.10;99.90;;;;;;5015218;28;20048;-82
2023/05/16 08:44:27;;;;;;;2.92;0.30;;;13.00;99.90;;;;;;5030000;28;20044;-82
2023/05/16 08:46:53;;;;;;;2.88;0.60;;;13.00;99.90;;;;;;5015460;28;20032;-78
2023/05/16 08:49:20;;;;;;;2.20;0.52;;;13.00;99.90;;;;;;5015790;28;20620;-82
2023/05/16 08:51:47;;;;;;;1.30;0.28;;;13.30;99.90;;;;;;5016020;28;20718;-83
2023/05/16 08:54:14;;;;;;;1.50;0.40;;;13.50;99.90;;;;;;5015662;28;20029;-83
2023/05/16 08:56:43;;;;;;;1.50;0.40;;;13.70;99.90;;;;;;5014407;28;20525;-81
2023/05/16 08:59:10;;;;;;;1.70;0.40;;;13.70;99.90;;;;;;5015655;28;20787;-82
2023/05/16 09:01:36;;;;;;;3.30;0.60;;;13.40;99.90;;;;;;5022723;28;20045;-82
2023/05/16 09:04:05;;;;;;;2.95;0.30;;;13.30;99.90;;;;;;5015206;28;20430;-81
2023/05/16 09:06:31;;;;;;;1.83;0.30;;;13.30;99.90;;;;;;5013676;28;20059;-82
2023/05/16 09:08:57;;;;;;;1.92;0.68;;;13.40;99.90;;;;;;5016652;28;20049;-83
2023/05/16 09:11:22;;;;;;;2.05;0.40;;;13.60;99.90;;;;;;5014650;28;20419;-82
2023/05/16 09:13:48;;;;;;;3.30;0.60;;;13.60;99.90;;;;;;5013837;28;20045;-83
2023/05/16 09:16:16;;;;;;;1.83;0.75;;;13.70;99.90;;;;;;5015574;28;20107;-85
2023/05/16 09:18:43;;;;;;;3.30;0.45;;;13.70;99.90;;;;;;5021041;28;20510;-81
2023/05/16 09:21:10;;;;;;;6.90;0.70;;;13.90;99.90;;;;;;5016205;28;20032;-82
2023/05/16 09:23:36;;;;;;;4.30;0.57;;;14.10;99.90;;;;;;5031067;28;20037;-82
2023/05/16 09:26:06;;;;;;;4.28;0.93;;;14.30;99.90;;;;;;5014315;28;20107;-80
2023/05/16 09:28:32;;;;;;;3.28;0.68;;;14.60;99.90;;;;;;5014175;28;20037;-78
2023/05/16 09:30:58;;;;;;;1.63;0.40;;;15.00;99.90;;;;;;5015323;28;20033;-82
2023/05/16 09:33:28;;;;;;;3.58;0.60;;;16.20;99.90;;;;;;5014274;28;20031;-80
2023/05/16 09:36:01;;;;;;;3.13;0.57;;;17.30;99.90;;;;;;5014212;28;20053;-82
2023/05/16 09:38:27;;;;;;;3.25;0.50;;;18.10;99.90;;;;;;5015390;28;20670;-83
2023/05/16 09:40:56;;;;;;;4.22;0.77;;;18.50;99.90;;;;;;5014408;28;20528;-83
2023/05/16 09:43:24;;;;;;;3.50;0.80;;;19.00;99.90;;;;;;5013743;28;20049;-81
2023/05/16 09:45:50;;;;;;;3.13;0.60;;;19.60;99.90;;;;;;5012350;28;20053;-82
2023/05/16 09:48:17;;;;;;;4.05;0.60;;;20.20;99.90;;;;;;5014077;28;20136;-81
2023/05/16 09:50:51;;;;;;;5.50;0.60;;;20.70;99.90;;;;;;5014555;28;20028;-82
2023/05/16 09:53:26;;;;;;;4.65;0.80;;;21.00;99.90;;;;;;5012320;28;20391;-82
2023/05/16 09:56:06;;;;;;;3.08;0.63;;;20.30;99.90;;;;;;5011979;28;20030;-82
2023/05/16 09:58:34;;;;;;;2.65;0.68;;;19.00;99.90;;;;;;5011521;28;20028;-81
2023/05/16 10:01:01;;;;;;;2.55;0.50;;;18.30;99.90;;;;;;5011963;28;20574;-83
2023/05/16 10:03:27;;;;;;;3.33;1.23;;;18.80;99.90;;;;;;5011390;28;20065;-82
2023/05/16 10:05:54;;;;;;;2.10;0.52;;;19.70;99.90;;;;;;5011778;28;20413;-82
2023/05/16 10:08:21;;;;;;;2.10;0.50;;;20.30;99.90;;;;;;5009653;28;20874;-81
2023/05/16 10:10:51;;;;;;;3.08;0.57;;;20.80;99.90;;;;;;5010285;28;20117;-81
2023/05/16 10:13:21;;;;;;;3.35;0.60;;;21.20;99.30;;;;;;5009991;28;20036;-81
2023/05/16 10:15:53;;;;;;;2.38;0.50;;;21.00;99.10;;;;;;5011515;28;20030;-81
2023/05/16 10:18:21;;;;;;;2.78;0.70;;;21.70;99.20;;;;;;5010789;28;20025;-82
2023/05/16 10:20:51;;;;;;;4.68;0.80;;;21.70;98.40;;;;;;5011695;28;20049;-81
2023/05/16 10:23:18;;;;;;;3.85;0.50;;;20.80;98.20;;;;;;5010412;28;20041;-81
2023/05/16 10:25:45;;;;;;;2.90;0.70;;;19.80;98.30;;;;;;5009002;28;20484;-80
2023/05/16 10:28:12;;;;;;;5.15;0.70;;;18.90;98.80;;;;;;5012153;28;20514;-81
2023/05/16 10:30:40;;;;;;;3.10;0.63;;;18.20;99.30;;;;;;5010836;28;20120;-81
2023/05/16 10:33:07;;;;;;;4.43;0.63;;;18.50;99.60;;;;;;5011166;28;20017;-80
2023/05/16 10:35:33;;;;;;;2.90;0.55;;;19.60;99.00;;;;;;5011724;28;20029;-82
2023/05/16 10:38:00;;;;;;;2.53;0.50;;;20.50;98.00;;;;;;5012125;28;20506;-81
2023/05/16 10:40:27;;;;;;;1.85;0.60;;;21.20;97.50;;;;;;5011150;28;20041;-82
2023/05/16 10:42:57;;;;;;;4.40;0.82;;;21.00;96.90;;;;;;5011817;28;20561;-79
2023/05/16 10:45:22;;;;;;;3.75;0.68;;;21.00;96.90;;;;;;5012114;28;20036;-80
2023/05/16 10:47:51;;;;;;;2.00;0.47;;;20.80;96.40;;;;;;5018417;28;20021;-81
2023/05/16 10:50:30;;;;;;;2.10;0.57;;;20.20;96.70;;;;;;5012349;28;20163;-82
2023/05/16 10:53:09;;;;;;;2.33;0.60;;;19.70;96.60;;;;;;5014242;28;20034;-81
2023/05/16 10:55:35;;;;;;;2.53;0.80;;;19.30;97.10;;;;;;5012509;28;20383;-81
2023/05/16 10:58:02;;;;;;;2.67;0.55;;;20.00;97.40;;;;;;5014009;28;20036;-81
2023/05/16 11:00:29;;;;;;;6.03;0.90;;;21.00;96.70;;;;;;5014719;28;20541;-80
2023/05/16 11:03:04;;;;;;;7.22;0.85;;;21.60;95.40;;;;;;5012997;28;20045;-81
2023/05/16 11:05:30;;;;;;;6.18;0.93;;;22.10;95.10;;;;;;5012223;28;20061;-80
2023/05/16 11:08:05;;;;;;;3.70;0.80;;;22.20;93.90;;;;;;5014413;28;20412;-81
2023/05/16 11:10:31;;;;;;;4.97;0.93;;;21.60;92.80;;;;;;5012508;28;20498;-81
2023/05/16 11:13:06;;;;;;;4.80;0.85;;;20.60;92.90;;;;;;5013416;28;20034;-81
2023/05/16 11:15:31;;;;;;;3.65;0.70;;;19.50;93.60;;;;;;5014894;28;20026;-81
2023/05/16 11:18:14;;;;;;;4.90;0.90;;;18.70;94.40;;;;;;5016404;28;20032;-81
2023/05/16 11:20:40;;;;;;;4.78;0.90;;;18.10;94.90;;;;;;5016549;28;20065;-81
2023/05/16 11:23:17;;;;;;;4.13;0.80;;;18.00;95.50;;;;;;5016344;28;20092;-81
2023/05/16 11:25:57;;;;;;;3.55;0.80;;;18.30;95.80;;;;;;5015696;28;20473;-81
2023/05/16 11:28:26;;;;;;;3.22;0.95;;;19.30;95.40;;;;;;5017483;28;20021;-81
2023/05/16 11:30:55;;;;;;;3.15;0.75;;;19.60;94.70;;;;;;5018211;28;20029;-81
2023/05/16 11:33:22;;;;;;;2.95;0.70;;;19.40;94.60;;;;;;5017020;28;20254;-80
2023/05/16 11:36:04;;;;;;;4.85;0.70;;;19.30;94.80;;;;;;5014790;28;20041;-81
2023/05/16 11:38:31;;;;;;;2.50;0.70;;;19.20;94.90;;;;;;5015160;28;20058;-82
2023/05/16 11:41:04;;;;;;;4.05;0.80;;;19.00;95.70;;;;;;5017288;28;20937;-82
2023/05/16 11:43:37;;;;;;;3.53;0.70;;;18.90;95.70;;;;;;5032308;28;20056;-80
2023/05/16 11:46:03;;;;;;;5.38;0.82;;;18.70;95.30;;;;;;5017915;28;20059;-81
2023/05/16 11:48:29;;;;;;;4.28;1.00;;;18.30;95.20;;;;;;5015763;28;20112;-80
2023/05/16 11:50:54;;;;;;;3.20;0.60;;;18.30;95.70;;;;;;5015008;28;21050;-81
2023/05/16 11:53:21;;;;;;;2.95;0.68;;;18.20;95.90;;;;;;5014931;28;20066;-81
2023/05/16 11:55:50;;;;;;;5.63;0.98;;;18.20;95.90;;;;;;5015469;28;20033;-80
2023/05/16 11:58:16;;;;;;;3.22;0.57;;;17.90;95.80;;;;;;5016066;28;20180;-81
2023/05/16 12:00:49;;;;;;;4.28;0.80;;;17.70;96.00;;;;;;5016513;28;20128;-81
2023/05/16 12:03:16;;;;;;;3.92;0.90;;;18.00;95.90;;;;;;5013986;28;20037;-81
2023/05/16 12:05:58;;;;;;;2.72;0.80;;;18.40;95.40;;;;;;5016447;28;20101;-81
2023/05/16 12:08:24;;;;;;;2.72;0.70;;;19.00;94.90;;;;;;5015151;28;20395;-82
2023/05/16 12:10:50;;;;;;;5.35;0.88;;;19.20;95.00;;;;;;5016467;28;20050;-82
2023/05/16 12:13:21;;;;;;;3.60;0.75;;;19.10;94.60;;;;;;5017084;28;20459;-81
2023/05/16 12:15:47;;;;;;;1.80;0.60;;;18.90;94.70;;;;;;5017802;28;20084;-83
2023/05/16 12:18:14;;;;;;;5.90;1.08;;;18.60;95.00;;;;;;5015026;28;20037;-81
2023/05/16 12:20:40;;;;;;;3.78;0.70;;;18.30;94.70;;;;;;5013372;28;20052;-82
2023/05/16 12:23:13;;;;;;;4.45;0.70;;;18.20;95.20;;;;;;5013451;28;20033;-81
2023/05/16 12:25:45;;;;;;;4.93;0.82;;;18.30;95.20;;;;;;5013423;28;20104;-82
2023/05/16 12:28:12;;;;;;;2.60;0.70;;;18.20;95.20;;;;;;5012726;28;20036;-81
2023/05/16 12:30:41;;;;;;;3.33;0.80;;;18.20;95.40;;;;;;5012797;28;20076;-81
2023/05/16 12:33:10;;;;;;;3.20;0.90;;;18.40;95.20;;;;;;5014402;28;20121;-81
2023/05/16 12:35:39;;;;;;;2.50;0.95;;;18.40;95.60;;;;;;5013905;28;20051;-84
2023/05/16 12:38:09;;;;;;;3.70;0.75;;;18.60;95.10;;;;;;5012854;28;20022;-83
2023/05/16 12:40:38;;;;;;;2.92;0.70;;;18.40;94.10;;;;;;5013165;28;20948;-82
2023/05/16 12:43:04;;;;;;;3.45;0.95;;;18.20;94.30;;;;;;5016692;28;20045;-82
2023/05/16 12:45:29;;;;;;;3.13;1.00;;;18.20;94.80;;;;;;5016346;28;20033;-82
2023/05/16 12:47:55;;;;;;;2.97;0.52;;;18.00;94.50;;;;;;5016324;28;20033;-82
2023/05/16 12:50:21;;;;;;;3.17;0.80;;;17.60;94.90;;;;;;5014866;28;20026;-82